< < Back
Terminal Aerodrome Forecast


Current Version              Previous Versions:   1  2  3  4  5  6  7  8  9  

Terminal Aerodrome Forecast

034
FTUS42 KCAE 011722
TAFCAE
TAF
KCAE 011722Z 0118/0218 06003KT P6SM BKN040 BKN200
     FM020400 00000KT P6SM SKC=

Latest METAR

132
SAUS80 KWBC 020800 RRA
MTRCAE
METAR KCAE 020756Z 25003KT 10SM FEW180 23/20 A3007 RMK AO2 SLP178
T02280200


USA.gov is the U.S. government's official web portal to all federal, state and local government web resources and services.